createdAt,value
2023-03-18T00:02:02.208Z,13.52
2023-03-18T00:04:47.909Z,10.43
2023-03-18T00:07:33.562Z,12.60
2023-03-18T01:11:30.066Z,15.43
2023-03-18T01:14:16.556Z,14.68
2023-03-18T01:17:02.404Z,13.35
2023-03-18T01:30:58.556Z,15.10
2023-03-18T01:42:12.610Z,11.45
2023-03-18T01:45:19.536Z,12.60
2023-03-18T01:48:15.049Z,12.63
2023-03-18T01:51:05.298Z,13.20
2023-03-18T01:53:52.549Z,16.60
2023-03-18T01:56:40.928Z,14.02
2023-03-18T01:59:30.251Z,15.60
2023-03-18T02:02:17.194Z,14.73
2023-03-18T02:05:06.685Z,12.60
2023-03-18T02:07:53.184Z,15.38
2023-03-18T02:10:41.422Z,13.77
2023-03-18T02:13:31.851Z,17.95
2023-03-18T02:16:24.080Z,13.82
2023-03-18T02:19:22.585Z,18.20
2023-03-18T02:22:17.382Z,17.60
2023-03-18T02:25:18.924Z,14.10
2023-03-18T02:28:10.041Z,15.32
2023-03-18T02:30:59.360Z,15.52
2023-03-18T02:33:46.413Z,14.27
2023-03-18T02:36:33.339Z,18.75
2023-03-18T02:39:22.630Z,14.82
2023-03-18T02:42:14.040Z,19.15
2023-03-18T02:45:17.291Z,15.27
2023-03-18T02:48:20.981Z,15.07
2023-03-18T02:51:09.029Z,14.35
2023-03-18T02:53:58.880Z,17.05
2023-03-18T02:56:46.081Z,15.98
2023-03-18T02:59:32.568Z,17.85
2023-03-18T03:02:20.362Z,14.82
2023-03-18T03:05:09.611Z,18.92
2023-03-18T03:07:55.932Z,17.08
2023-03-18T03:10:44.209Z,15.85
2023-03-18T03:13:29.980Z,18.20
2023-03-18T03:16:21.210Z,16.17
2023-03-18T03:19:08.470Z,16.33
2023-03-18T03:21:55.087Z,18.98
2023-03-18T03:24:45.065Z,18.02
2023-03-18T03:27:33.065Z,18.85
2023-03-18T03:30:19.784Z,17.02
2023-03-18T03:33:08.446Z,17.55
2023-03-18T03:35:55.998Z,16.23
2023-03-18T03:38:42.368Z,16.88
2023-03-18T03:41:28.453Z,15.98
2023-03-18T03:44:14.452Z,20.15
2023-03-18T03:47:00.254Z,18.77
2023-03-18T03:49:46.104Z,21.23
2023-03-18T03:52:34.823Z,22.48
2023-03-18T03:55:22.664Z,23.13
2023-03-18T03:58:09.469Z,19.85
2023-03-18T04:00:55.971Z,24.98
2023-03-18T04:03:42.389Z,22.45
2023-03-18T04:06:28.356Z,22.20
2023-03-18T04:09:21.431Z,23.02
2023-03-18T04:12:08.408Z,23.45
2023-03-18T04:14:54.564Z,28.52
2023-03-18T04:17:41.795Z,23.73
2023-03-18T04:20:29.861Z,23.05
2023-03-18T04:23:17.831Z,27.83
2023-03-18T04:26:05.876Z,29.88
2023-03-18T04:28:52.694Z,32.35
2023-03-18T04:31:41.111Z,23.67
2023-03-18T04:34:27.468Z,22.90
2023-03-18T04:37:14.603Z,25.75
2023-03-18T04:40:05.591Z,29.15
2023-03-18T04:42:53.350Z,25.70
2023-03-18T04:45:43.790Z,32.15
2023-03-18T04:51:20.762Z,26.98
2023-03-18T04:54:06.641Z,30.60
2023-03-18T04:56:52.855Z,28.33
2023-03-18T04:59:41.846Z,33.38
2023-03-18T05:02:28.361Z,30.70
2023-03-18T05:05:15.136Z,37.90
2023-03-18T05:08:07.553Z,32.08
2023-03-18T05:10:54.334Z,29.90
2023-03-18T05:13:41.626Z,34.35
2023-03-18T05:16:30.840Z,35.92
2023-03-18T05:19:18.486Z,30.25
2023-03-18T05:22:17.702Z,30.52
2023-03-18T05:25:07.049Z,33.70
2023-03-18T05:27:54.774Z,29.33
2023-03-18T05:30:49.898Z,30.30
2023-03-18T05:33:38.732Z,33.58
2023-03-18T05:36:24.522Z,35.20
